createdAt,value
2023-02-28T00:00:43.194Z,98794.67
2023-02-28T00:03:19.927Z,98795.75
2023-02-28T00:05:48.732Z,98795.60
2023-02-28T00:08:17.819Z,98797.16
2023-02-28T00:10:46.771Z,98800.13
2023-02-28T00:13:15.750Z,98801.41
2023-02-28T00:15:46.840Z,98795.60
2023-02-28T00:18:15.681Z,98789.27
2023-02-28T00:20:44.470Z,98787.23
2023-02-28T00:23:13.429Z,98789.86
2023-02-28T00:25:42.850Z,98782.05
2023-02-28T00:28:11.676Z,98787.06
2023-02-28T00:30:40.789Z,98790.38
2023-02-28T00:33:09.611Z,98788.27
2023-02-28T00:35:38.735Z,98792.30
2023-02-28T00:38:07.744Z,98797.22
2023-02-28T00:40:36.862Z,98799.29
2023-02-28T00:43:05.632Z,98797.35
2023-02-28T00:45:34.966Z,98795.52
2023-02-28T00:48:03.930Z,98796.30
2023-02-28T00:50:33.393Z,98795.10
2023-02-28T00:53:02.239Z,98792.17
2023-02-28T00:55:31.051Z,98790.95
2023-02-28T00:57:59.766Z,98789.00
2023-02-28T01:00:28.476Z,98783.64
2023-02-28T01:02:57.312Z,98783.84
2023-02-28T01:05:26.427Z,98785.23
2023-02-28T01:07:55.605Z,98785.04
2023-02-28T01:10:24.561Z,98779.72
2023-02-28T01:12:53.658Z,98771.42
2023-02-28T01:15:22.433Z,98773.02
2023-02-28T01:17:51.515Z,98772.73
2023-02-28T01:20:20.447Z,98774.69
2023-02-28T01:22:49.288Z,98770.88
2023-02-28T01:25:18.455Z,98768.98
2023-02-28T01:27:47.635Z,98770.20
2023-02-28T01:30:16.891Z,98765.92
2023-02-28T01:32:45.826Z,98768.85
2023-02-28T01:35:14.839Z,98772.25
2023-02-28T01:37:43.728Z,98770.67
2023-02-28T01:40:13.435Z,98772.11
2023-02-28T01:42:42.263Z,98772.09
2023-02-28T01:45:25.235Z,98766.47
2023-02-28T01:47:59.594Z,98773.69
2023-02-28T01:50:31.852Z,98774.27
2023-02-28T01:53:05.496Z,98772.64
2023-02-28T01:55:36.154Z,98771.36
2023-02-28T01:58:07.376Z,98770.65
2023-02-28T02:00:37.442Z,98770.20
2023-02-28T02:03:16.940Z,98771.96
2023-02-28T02:05:49.129Z,98771.54
2023-02-28T02:08:23.347Z,98767.14
2023-02-28T02:10:59.846Z,98762.31
2023-02-28T02:13:38.752Z,98764.70
2023-02-28T02:17:02.624Z,98756.96
2023-02-28T02:20:12.704Z,98754.23
2023-02-28T02:23:00.724Z,98756.86
2023-02-28T02:25:38.498Z,98755.49
2023-02-28T02:28:49.063Z,98757.39
2023-02-28T02:31:50.635Z,98750.23
2023-02-28T02:34:33.446Z,98746.70
2023-02-28T02:37:23.683Z,98740.74
2023-02-28T02:40:10.084Z,98747.27
2023-02-28T02:43:03.249Z,98749.45
2023-02-28T02:45:44.138Z,98747.59
2023-02-28T02:48:17.373Z,98751.27
2023-02-28T02:50:51.585Z,98754.55
2023-02-28T02:53:25.027Z,98758.16
2023-02-28T02:55:55.900Z,98757.02
2023-02-28T02:58:29.571Z,98757.77
2023-02-28T03:01:03.189Z,98761.33
2023-02-28T03:03:33.892Z,98757.84
2023-02-28T03:06:04.647Z,98758.54
2023-02-28T03:08:39.780Z,98759.98
2023-02-28T03:11:16.120Z,98758.84
2023-02-28T03:13:51.255Z,98760.86
2023-02-28T03:16:36.314Z,98751.21
2023-02-28T03:19:31.683Z,98749.05
2023-02-28T03:22:19.338Z,98742.70
2023-02-28T03:25:00.498Z,98744.07
2023-02-28T03:28:07.409Z,98744.61
2023-02-28T03:30:55.422Z,98742.20
2023-02-28T03:34:20.085Z,98745.55
2023-02-28T03:36:55.159Z,98741.80
2023-02-28T03:39:41.294Z,98740.73
2023-02-28T03:42:18.599Z,98743.51
2023-02-28T03:44:52.489Z,98748.20
2023-02-28T03:48:00.322Z,98745.00
2023-02-28T03:50:35.208Z,98746.70
2023-02-28T03:53:10.326Z,98745.08
2023-02-28T03:55:46.831Z,98742.27
2023-02-28T03:58:33.699Z,98743.23
2023-02-28T04:01:28.268Z,98744.74
2023-02-28T04:03:57.403Z,98746.52
2023-02-28T04:06:26.362Z,98748.20
2023-02-28T04:08:55.671Z,98748.06
2023-02-28T04:11:34.337Z,98744.00
2023-02-28T04:14:04.684Z,98745.02
2023-02-28T04:16:36.010Z,98742.55
2023-02-28T04:19:07.805Z,98745.71
2023-02-28T04:21:41.905Z,98747.46
2023-02-28T04:24:15.590Z,98753.80
2023-02-28T04:26:48.481Z,98753.02
2023-02-28T04:29:30.442Z,98751.80
2023-02-28T04:32:01.152Z,98743.44
2023-02-28T04:34:32.896Z,98739.29
2023-02-28T04:37:12.947Z,98741.15
2023-02-28T04:39:43.805Z,98737.49
2023-02-28T04:42:13.960Z,98736.81
2023-02-28T04:44:43.955Z,98739.25
2023-02-28T04:47:12.920Z,98740.16
2023-02-28T04:49:42.892Z,98745.07
2023-02-28T04:52:11.887Z,98747.17
2023-02-28T04:54:41.299Z,98746.98
2023-02-28T04:57:10.411Z,98753.41
2023-02-28T04:59:39.757Z,98758.27
2023-02-28T05:02:08.891Z,98764.14
2023-02-28T05:04:39.250Z,98765.19
2023-02-28T05:07:08.290Z,98768.63
2023-02-28T05:09:37.489Z,98772.88
2023-02-28T05:12:07.381Z,98774.09
2023-02-28T05:14:36.142Z,98764.29
2023-02-28T05:17:05.296Z,98765.46
2023-02-28T05:19:34.359Z,98765.69
2023-02-28T05:22:04.290Z,98765.34
2023-02-28T05:24:34.254Z,98770.52
2023-02-28T05:27:03.160Z,98773.42
2023-02-28T05:29:31.867Z,98771.92
2023-02-28T05:32:01.246Z,98770.12
2023-02-28T05:34:30.204Z,98770.30
2023-02-28T05:36:59.033Z,98777.29
2023-02-28T05:39:28.005Z,98779.30
2023-02-28T05:41:57.057Z,98776.23
2023-02-28T05:44:26.282Z,98778.69
2023-02-28T05:46:55.120Z,98769.58
2023-02-28T05:49:24.385Z,98772.49
2023-02-28T05:51:53.510Z,98775.38
2023-02-28T05:54:22.484Z,98772.44
2023-02-28T05:56:51.449Z,98769.76
2023-02-28T05:59:21.311Z,98768.71
2023-02-28T06:01:50.837Z,98769.19
2023-02-28T06:04:31.388Z,98769.37
2023-02-28T06:07:02.565Z,98770.27
2023-02-28T06:09:31.608Z,98775.59
2023-02-28T06:12:03.914Z,98783.12
2023-02-28T06:14:35.257Z,98790.25
2023-02-28T06:17:05.659Z,98788.03
2023-02-28T06:19:35.361Z,98791.48
2023-02-28T06:22:04.280Z,98789.85
2023-02-28T06:24:33.813Z,98793.84
2023-02-28T06:27:06.557Z,98792.11
2023-02-28T06:29:36.531Z,98795.41
2023-02-28T06:32:05.687Z,98788.23
2023-02-28T06:34:35.605Z,98791.75
2023-02-28T06:37:05.089Z,98797.98
2023-02-28T06:39:34.188Z,98802.84
2023-02-28T06:42:02.924Z,98807.68
2023-02-28T06:44:36.669Z,98811.15
2023-02-28T06:47:07.495Z,98813.52
2023-02-28T06:49:38.082Z,98814.30
2023-02-28T06:52:07.458Z,98813.66
2023-02-28T06:54:38.768Z,98815.31
2023-02-28T06:57:07.793Z,98813.61
2023-02-28T06:59:37.908Z,98812.35
2023-02-28T07:02:08.365Z,98815.40
2023-02-28T07:04:37.629Z,98817.45
2023-02-28T07:07:06.889Z,98819.95
2023-02-28T07:09:36.162Z,98815.15
2023-02-28T07:12:05.049Z,98812.34
2023-02-28T07:14:33.766Z,98809.88
2023-02-28T07:17:02.624Z,98812.34
2023-02-28T07:19:31.602Z,98804.44
2023-02-28T07:22:00.676Z,98804.16
2023-02-28T07:24:30.800Z,98802.54
2023-02-28T07:27:01.041Z,98803.36
2023-02-28T07:29:30.571Z,98801.98
2023-02-28T07:31:59.858Z,98797.95
2023-02-28T07:34:28.725Z,98793.45
2023-02-28T07:36:57.661Z,98792.12
2023-02-28T07:39:26.250Z,98788.70
2023-02-28T07:41:55.292Z,98788.77
2023-02-28T07:44:24.316Z,98789.52
2023-02-28T07:46:54.568Z,98792.34
2023-02-28T07:49:24.088Z,98790.31
2023-02-28T07:51:53.156Z,98786.82
2023-02-28T07:54:22.205Z,98786.80
2023-02-28T07:56:51.752Z,98785.41
2023-02-28T07:59:20.906Z,98788.61
2023-02-28T08:01:51.837Z,98782.91
2023-02-28T08:04:21.127Z,98779.33
2023-02-28T08:06:53.517Z,98777.48
2023-02-28T08:09:22.432Z,98786.48
2023-02-28T08:11:51.712Z,98785.77
2023-02-28T08:14:20.845Z,98779.23
2023-02-28T08:16:49.970Z,98779.86
2023-02-28T08:19:19.798Z,98780.34
2023-02-28T08:21:49.765Z,98782.48
2023-02-28T08:24:20.151Z,98776.16
2023-02-28T08:26:49.198Z,98768.09
2023-02-28T08:29:18.503Z,98761.42
2023-02-28T08:31:47.420Z,98763.14
2023-02-28T08:34:18.433Z,98762.29
2023-02-28T08:36:47.324Z,98759.02
2023-02-28T08:39:16.333Z,98756.65
2023-02-28T08:41:46.844Z,98758.41
2023-02-28T08:44:16.943Z,98760.02
2023-02-28T08:46:45.654Z,98760.52
2023-02-28T08:49:14.870Z,98763.70
2023-02-28T08:51:43.710Z,98759.30
2023-02-28T08:54:20.917Z,98756.55
2023-02-28T08:56:50.162Z,98754.98
2023-02-28T08:59:19.686Z,98754.98
2023-02-28T09:01:48.524Z,98752.70
2023-02-28T09:04:19.917Z,98754.33
2023-02-28T09:06:50.360Z,98747.05
2023-02-28T09:09:19.860Z,98748.65
2023-02-28T09:11:49.043Z,98744.56
2023-02-28T09:14:19.239Z,98752.77
2023-02-28T09:16:49.216Z,98748.50
2023-02-28T09:19:18.287Z,98747.69
2023-02-28T09:21:47.916Z,98746.11
2023-02-28T09:24:17.475Z,98751.34
2023-02-28T09:26:56.790Z,98742.99
2023-02-28T09:29:34.902Z,98736.13
2023-02-28T09:32:03.932Z,98733.45
2023-02-28T09:34:33.974Z,98734.11
2023-02-28T09:37:03.483Z,98735.15
2023-02-28T09:39:33.509Z,98738.17
2023-02-28T09:42:04.476Z,98745.02
2023-02-28T09:44:39.127Z,98742.77
2023-02-28T09:47:46.530Z,98738.17
2023-02-28T09:50:35.871Z,98738.42
2023-02-28T09:53:15.290Z,98736.27
2023-02-28T09:55:50.009Z,98731.71
2023-02-28T09:58:25.249Z,98732.77
2023-02-28T10:01:04.908Z,98737.84
2023-02-28T10:03:41.977Z,98730.64
2023-02-28T10:06:21.064Z,98726.86
2023-02-28T10:08:59.441Z,98725.05
2023-02-28T10:11:29.577Z,98721.17
2023-02-28T10:14:06.124Z,98713.29
2023-02-28T10:16:48.270Z,98725.80
2023-02-28T10:19:44.259Z,98724.58
2023-02-28T10:22:28.838Z,98706.23
2023-02-28T10:25:06.859Z,98694.87
2023-02-28T10:27:36.354Z,98696.48
2023-02-28T10:30:07.609Z,98691.43
2023-02-28T10:32:40.488Z,98694.95
2023-02-28T10:35:28.804Z,98691.83
2023-02-28T10:38:02.013Z,98705.39
2023-02-28T10:40:39.393Z,98701.07
2023-02-28T10:43:14.275Z,98691.86
2023-02-28T10:46:04.124Z,98695.68
2023-02-28T10:48:37.859Z,98683.08
2023-02-28T10:51:09.904Z,98684.02
2023-02-28T10:54:02.241Z,98682.72
2023-02-28T10:56:32.673Z,98687.56
2023-02-28T10:59:02.360Z,98681.70
2023-02-28T11:01:51.897Z,98682.12
2023-02-28T11:04:24.236Z,98678.04
2023-02-28T11:07:01.389Z,98678.64
2023-02-28T11:09:36.580Z,98672.81
2023-02-28T11:12:09.197Z,98671.57
2023-02-28T11:14:52.750Z,98663.61
2023-02-28T11:17:26.609Z,98663.05
2023-02-28T11:19:59.865Z,98659.73
2023-02-28T11:22:34.731Z,98655.20
2023-02-28T11:25:11.559Z,98658.48
2023-02-28T11:27:48.726Z,98661.58
2023-02-28T11:30:26.713Z,98659.61
2023-02-28T11:32:55.739Z,98655.77
2023-02-28T11:35:42.664Z,98654.03
2023-02-28T11:38:14.606Z,98653.55
2023-02-28T11:41:03.842Z,98653.67
2023-02-28T11:44:04.748Z,98654.02
2023-02-28T11:46:55.105Z,98654.77
2023-02-28T11:49:33.976Z,98655.79
2023-02-28T11:52:27.914Z,98655.75
2023-02-28T11:55:05.058Z,98659.94
2023-02-28T11:57:53.330Z,98654.66
2023-02-28T12:00:41.057Z,98651.39
2023-02-28T12:03:31.919Z,98647.13
2023-02-28T12:06:13.474Z,98641.36
2023-02-28T12:09:00.918Z,98632.55
2023-02-28T12:11:42.056Z,98629.73
2023-02-28T12:14:29.548Z,98628.22
2023-02-28T12:17:16.103Z,98623.09
2023-02-28T12:19:57.046Z,98615.32
2023-02-28T12:22:31.675Z,98604.73
2023-02-28T12:25:22.136Z,98597.29
2023-02-28T12:27:54.706Z,98588.21
2023-02-28T12:30:28.710Z,98592.70
2023-02-28T12:33:06.745Z,98596.88
2023-02-28T12:35:57.452Z,98603.45
2023-02-28T12:38:31.199Z,98598.13
2023-02-28T12:41:09.733Z,98600.73
2023-02-28T12:43:45.867Z,98600.45
2023-02-28T12:46:25.190Z,98594.95
2023-02-28T12:48:58.477Z,98585.63
2023-02-28T12:51:30.573Z,98585.77
2023-02-28T12:54:07.604Z,98586.53
2023-02-28T12:56:56.047Z,98574.23
2023-02-28T12:59:49.956Z,98572.27
2023-02-28T13:02:29.337Z,98582.62
2023-02-28T13:05:01.703Z,98581.05
2023-02-28T13:07:45.775Z,98578.82
2023-02-28T13:10:18.038Z,98578.21
2023-02-28T13:12:56.759Z,98578.56
2023-02-28T13:15:30.057Z,98581.23
2023-02-28T13:18:01.762Z,98585.79
2023-02-28T13:20:39.284Z,98581.88
2023-02-28T13:23:43.783Z,98584.01
2023-02-28T13:26:14.450Z,98584.05
2023-02-28T13:29:22.286Z,98582.30
2023-02-28T13:32:09.958Z,98579.02
2023-02-28T13:35:08.097Z,98572.02
2023-02-28T13:37:51.468Z,98572.55
2023-02-28T13:40:38.538Z,98568.12
2023-02-28T13:43:10.900Z,98560.70
2023-02-28T13:45:41.347Z,98563.66
2023-02-28T13:48:26.536Z,98561.98
2023-02-28T13:50:56.962Z,98555.38
2023-02-28T13:53:44.252Z,98558.27
2023-02-28T13:57:03.687Z,98558.23
2023-02-28T13:59:48.069Z,98556.95
2023-02-28T14:02:50.184Z,98558.36
2023-02-28T14:05:27.893Z,98558.73
2023-02-28T14:08:01.232Z,98558.38
2023-02-28T14:10:33.964Z,98551.76
2023-02-28T14:13:23.742Z,98554.78
2023-02-28T14:16:04.243Z,98557.52
2023-02-28T14:18:51.732Z,98559.05
2023-02-28T14:21:30.533Z,98560.46
2023-02-28T14:24:08.783Z,98561.83
2023-02-28T14:27:02.567Z,98555.29
2023-02-28T14:30:01.094Z,98540.52
2023-02-28T14:32:46.870Z,98533.35
2023-02-28T14:35:42.171Z,98532.84
2023-02-28T14:38:38.229Z,98540.42
2023-02-28T14:41:26.872Z,98545.25
2023-02-28T14:44:01.788Z,98542.12
2023-02-28T14:46:42.658Z,98543.63
2023-02-28T14:49:32.958Z,98533.16
2023-02-28T14:52:14.032Z,98537.06
2023-02-28T14:54:43.768Z,98530.70
2023-02-28T14:57:29.640Z,98537.05
2023-02-28T15:00:13.648Z,98544.11
2023-02-28T15:02:44.361Z,98539.48
2023-02-28T15:05:13.645Z,98539.21
2023-02-28T15:07:43.864Z,98541.54
2023-02-28T15:10:27.673Z,98544.33
2023-02-28T15:13:07.743Z,98550.55
2023-02-28T15:16:01.168Z,98547.33
2023-02-28T15:18:54.200Z,98560.77
2023-02-28T15:21:29.233Z,98555.90
2023-02-28T15:24:07.998Z,98563.81
2023-02-28T15:26:42.733Z,98567.05
2023-02-28T15:29:20.797Z,98568.96
2023-02-28T15:32:02.221Z,98568.46
2023-02-28T15:34:44.604Z,98562.88
2023-02-28T15:37:34.818Z,98557.42
2023-02-28T15:40:15.776Z,98554.02
2023-02-28T15:43:16.038Z,98563.64
2023-02-28T15:45:54.334Z,98558.81
2023-02-28T15:48:38.516Z,98560.20
2023-02-28T15:51:09.998Z,98564.27
2023-02-28T15:54:00.795Z,98572.29
2023-02-28T15:56:37.126Z,98571.36
2023-02-28T15:59:19.171Z,98571.59
2023-02-28T16:01:49.633Z,98562.91
2023-02-28T16:04:21.864Z,98572.73
2023-02-28T16:07:00.026Z,98563.95
2023-02-28T16:09:34.337Z,98570.42
2023-02-28T16:12:06.016Z,98564.91
2023-02-28T16:14:39.605Z,98562.27
2023-02-28T16:17:18.694Z,98558.69
2023-02-28T16:19:49.632Z,98560.10
2023-02-28T16:22:19.351Z,98552.23
2023-02-28T16:24:50.197Z,98555.67
2023-02-28T16:27:28.703Z,98557.83
2023-02-28T16:29:59.045Z,98557.91
2023-02-28T16:32:38.375Z,98558.83
2023-02-28T16:35:12.230Z,98566.46
2023-02-28T16:37:43.279Z,98581.81
2023-02-28T16:40:23.017Z,98576.80
2023-02-28T16:42:55.501Z,98574.19
2023-02-28T16:45:28.000Z,98566.48
2023-02-28T16:47:58.106Z,98563.10
2023-02-28T16:50:31.252Z,98566.35
2023-02-28T16:53:01.161Z,98565.60
2023-02-28T16:55:30.860Z,98568.83
2023-02-28T16:58:02.424Z,98569.30
2023-02-28T17:00:33.297Z,98563.95
2023-02-28T17:03:07.163Z,98566.33
2023-02-28T17:05:41.260Z,98569.98
2023-02-28T17:08:12.221Z,98572.08
2023-02-28T17:10:41.215Z,98575.77
2023-02-28T17:13:15.232Z,98577.42
2023-02-28T17:15:48.170Z,98578.80
2023-02-28T17:18:20.807Z,98575.46
2023-02-28T17:20:52.376Z,98577.61
2023-02-28T17:23:22.326Z,98578.02
2023-02-28T17:25:57.818Z,98583.31
2023-02-28T17:28:28.159Z,98581.19
2023-02-28T17:30:58.121Z,98579.38
2023-02-28T17:33:28.647Z,98588.55
2023-02-28T17:35:59.211Z,98581.75
2023-02-28T17:38:28.824Z,98587.05
2023-02-28T17:40:59.289Z,98591.28
2023-02-28T17:43:30.123Z,98595.58
2023-02-28T17:45:59.981Z,98601.15
2023-02-28T17:48:30.815Z,98597.48
2023-02-28T17:51:01.080Z,98600.11
2023-02-28T17:53:30.621Z,98597.27
2023-02-28T17:56:00.287Z,98600.73
2023-02-28T17:58:32.818Z,98590.30
2023-02-28T18:01:02.110Z,98597.73
2023-02-28T18:03:33.114Z,98606.00
2023-02-28T18:06:04.056Z,98612.13
2023-02-28T18:08:37.246Z,98619.52
2023-02-28T18:11:07.030Z,98623.42
2023-02-28T18:13:36.669Z,98617.17
2023-02-28T18:16:07.158Z,98612.71
2023-02-28T18:18:38.835Z,98609.59
2023-02-28T18:21:10.486Z,98613.73
2023-02-28T18:23:48.555Z,98600.27
2023-02-28T18:26:19.436Z,98607.44
2023-02-28T18:28:49.545Z,98601.58
2023-02-28T18:31:21.614Z,98600.84
2023-02-28T18:33:53.682Z,98595.81
2023-02-28T18:36:23.657Z,98592.01
2023-02-28T18:38:53.659Z,98586.66
2023-02-28T18:41:24.081Z,98589.67
2023-02-28T18:43:55.116Z,98592.63
2023-02-28T18:46:26.168Z,98589.73
2023-02-28T18:48:55.588Z,98592.24
2023-02-28T18:51:27.207Z,98594.67
2023-02-28T18:53:57.253Z,98599.59
2023-02-28T18:56:27.807Z,98591.56
2023-02-28T18:58:57.173Z,98591.76
2023-02-28T19:01:33.096Z,98592.88
2023-02-28T19:04:03.911Z,98586.20
2023-02-28T19:06:33.855Z,98586.81
2023-02-28T19:09:04.355Z,98583.70
2023-02-28T19:11:36.642Z,98579.08
2023-02-28T19:14:06.695Z,98583.69
2023-02-28T19:16:36.733Z,98588.06
2023-02-28T19:19:06.592Z,98590.16
2023-02-28T19:21:37.701Z,98583.37
2023-02-28T19:24:08.104Z,98576.05
2023-02-28T19:26:38.692Z,98572.02
2023-02-28T19:29:09.001Z,98566.30
2023-02-28T19:31:39.182Z,98564.50
2023-02-28T19:34:08.617Z,98570.17
2023-02-28T19:36:39.092Z,98565.01
2023-02-28T19:39:09.205Z,98562.65
2023-02-28T19:41:38.306Z,98560.16
2023-02-28T19:44:08.252Z,98557.02
2023-02-28T19:46:39.891Z,98563.48
2023-02-28T19:49:10.183Z,98565.48
2023-02-28T19:51:41.875Z,98571.70
2023-02-28T19:54:11.313Z,98567.86
2023-02-28T19:56:40.765Z,98573.48
2023-02-28T19:59:21.050Z,98574.31
2023-02-28T20:01:55.257Z,98580.98
2023-02-28T20:04:25.632Z,98581.16
2023-02-28T20:06:56.410Z,98580.59
2023-02-28T20:09:26.606Z,98586.98
2023-02-28T20:12:00.930Z,98585.11
2023-02-28T20:14:32.434Z,98580.48
2023-02-28T20:17:01.862Z,98574.14
2023-02-28T20:19:32.164Z,98572.91
2023-02-28T20:22:03.680Z,98571.89
2023-02-28T20:24:35.734Z,98562.05
2023-02-28T20:27:06.230Z,98564.84
2023-02-28T20:29:37.183Z,98564.83
2023-02-28T20:32:08.954Z,98564.75
2023-02-28T20:34:38.849Z,98566.02
2023-02-28T20:37:08.465Z,98565.71
2023-02-28T20:39:38.216Z,98570.90
2023-02-28T20:42:09.649Z,98559.89
2023-02-28T20:44:40.548Z,98559.63
2023-02-28T20:47:10.173Z,98559.94
2023-02-28T20:49:39.762Z,98562.34
2023-02-28T20:52:09.038Z,98569.03
2023-02-28T20:54:39.293Z,98561.11
2023-02-28T20:57:09.492Z,98563.10
2023-02-28T20:59:41.810Z,98560.70
2023-02-28T21:02:18.432Z,98553.27
2023-02-28T21:04:48.601Z,98558.61
2023-02-28T21:07:19.076Z,98554.23
2023-02-28T21:09:48.686Z,98560.20
2023-02-28T21:12:19.733Z,98560.80
2023-02-28T21:14:50.459Z,98560.15
2023-02-28T21:17:20.559Z,98558.73
2023-02-28T21:19:51.025Z,98549.90
2023-02-28T21:22:20.765Z,98546.16
2023-02-28T21:24:50.020Z,98542.42
2023-02-28T21:27:19.469Z,98545.03
2023-02-28T21:29:49.775Z,98548.96
2023-02-28T21:32:19.304Z,98547.74
2023-02-28T21:34:49.232Z,98544.42
2023-02-28T21:37:18.753Z,98545.44
2023-02-28T21:39:48.323Z,98546.06
2023-02-28T21:42:18.252Z,98545.32
2023-02-28T21:44:48.202Z,98539.65
2023-02-28T21:47:18.079Z,98535.40
2023-02-28T21:49:47.419Z,98534.08
2023-02-28T21:52:17.215Z,98530.64
2023-02-28T21:54:47.507Z,98520.36
2023-02-28T21:57:18.545Z,98512.31
2023-02-28T21:59:48.003Z,98510.42
2023-02-28T22:02:17.309Z,98502.33
2023-02-28T22:04:47.330Z,98506.53
2023-02-28T22:07:18.621Z,98513.85
2023-02-28T22:09:48.240Z,98514.98
2023-02-28T22:12:19.396Z,98516.40
2023-02-28T22:14:49.017Z,98509.69
2023-02-28T22:17:18.295Z,98507.25
2023-02-28T22:19:47.508Z,98509.21
2023-02-28T22:22:16.261Z,98503.26
2023-02-28T22:24:45.718Z,98507.85
2023-02-28T22:27:14.800Z,98508.55
2023-02-28T22:29:44.148Z,98508.71
2023-02-28T22:32:14.391Z,98504.85
2023-02-28T22:34:43.821Z,98490.35
2023-02-28T22:37:12.707Z,98488.56
2023-02-28T22:39:41.707Z,98489.63
2023-02-28T22:42:10.923Z,98485.05
2023-02-28T22:44:41.512Z,98480.64
2023-02-28T22:47:11.137Z,98473.39
2023-02-28T22:49:40.308Z,98467.95
2023-02-28T22:52:10.950Z,98468.13
2023-02-28T22:54:40.808Z,98461.84
2023-02-28T22:57:10.779Z,98465.58
2023-02-28T22:59:40.384Z,98450.99
2023-02-28T23:02:09.659Z,98453.89
2023-02-28T23:04:38.878Z,98455.58
2023-02-28T23:07:08.267Z,98453.52
2023-02-28T23:09:38.342Z,98462.37
2023-02-28T23:12:08.213Z,98462.45
2023-02-28T23:14:37.303Z,98453.46
2023-02-28T23:17:06.828Z,98461.96
2023-02-28T23:19:36.743Z,98463.77
2023-02-28T23:22:06.435Z,98469.31
2023-02-28T23:24:36.920Z,98465.98
2023-02-28T23:27:06.925Z,98467.88
2023-02-28T23:29:37.493Z,98468.40
2023-02-28T23:32:07.216Z,98472.42
2023-02-28T23:34:36.635Z,98484.13
2023-02-28T23:37:06.208Z,98480.65
2023-02-28T23:39:37.189Z,98483.28
2023-02-28T23:42:07.455Z,98477.87
2023-02-28T23:44:36.716Z,98462.32
2023-02-28T23:47:07.139Z,98454.16
2023-02-28T23:49:36.509Z,98458.86
2023-02-28T23:52:06.178Z,98459.94
2023-02-28T23:54:35.490Z,98454.23
2023-02-28T23:57:04.542Z,98456.67
2023-02-28T23:59:34.789Z,98461.86
